Time;durP1;ratioP1;P1;durP2;ratioP2;P2;SDS_P1;SDS_P2;PMS_P1;PMS_P2;Temp;Humidity;BMP_temperature;BMP_pressure;BME280_temperature;BME280_humidity;BME280_pressure;Samples;Min_cycle;Max_cycle;Signal;HPM_P1;HPM_P2
2022/08/01 00:01:40;;;;;;;;;;;;;;;24.29;46.72;95658.69;10233357;28;1810;-67
2022/08/01 00:06:41;;;;;;;;;;;;;;;24.30;46.69;95668.22;10238447;28;1817;-67
2022/08/01 00:11:42;;;;;;;;;;;;;;;24.30;46.69;95676.16;10240623;28;1910;-67
2022/08/01 00:16:42;;;;;;;;;;;;;;;24.29;46.65;95679.88;10238128;28;1902;-67
2022/08/01 00:21:43;;;;;;;;;;;;;;;24.29;46.60;95678.03;10245338;28;1887;-67
2022/08/01 00:26:44;;;;;;;;;;;;;;;24.30;46.61;95678.81;10239251;28;1917;-67
2022/08/01 00:31:44;;;;;;;;;;;;;;;24.30;46.47;95678.81;10258416;28;1976;-67
2022/08/01 00:36:46;;;;;;;;;;;;;;;24.30;46.43;95686.75;10259038;28;1904;-67
2022/08/01 00:41:47;;;;;;;;;;;;;;;24.30;46.40;95681.47;10245521;28;1946;-67
2022/08/01 00:46:47;;;;;;;;;;;;;;;24.32;46.45;95681.94;10234646;28;1934;-67
2022/08/01 00:51:48;;;;;;;;;;;;;;;24.30;46.40;95676.91;10235101;28;2038;-66
2022/08/01 00:56:49;;;;;;;;;;;;;;;24.31;46.52;95681.16;10251003;28;2083;-67
2022/08/01 01:01:52;;;;;;;;;;;;;;;24.31;46.50;95678.50;10241974;28;1972;-67
2022/08/01 01:06:58;;;;;;;;;;;;;;;24.32;46.38;95679.28;10237492;28;1973;-67
2022/08/01 01:12:08;;;;;;;;;;;;;;;24.31;46.31;95673.22;10239206;28;1974;-67
2022/08/01 01:17:17;;;;;;;;;;;;;;;24.32;46.40;95680.06;10252771;28;2009;-67
2022/08/01 01:22:33;;;;;;;;;;;;;;;24.31;46.39;95681.16;10243052;28;1967;-67
2022/08/01 01:28:05;;;;;;;;;;;;;;;24.30;46.34;95681.47;10238365;28;2030;-67
2022/08/01 01:33:07;;;;;;;;;;;;;;;24.33;46.27;95691.44;10239775;29;1963;-67
2022/08/01 01:38:16;;;;;;;;;;;;;;;24.31;46.58;95690.97;10249683;28;1981;-67
2022/08/01 01:43:19;;;;;;;;;;;;;;;24.34;46.24;95687.72;10232779;28;1999;-67
2022/08/01 01:48:20;;;;;;;;;;;;;;;24.32;46.43;95689.88;10249540;28;1881;-67
2022/08/01 01:53:21;;;;;;;;;;;;;;;24.32;46.26;95689.88;10233227;28;1996;-67
2022/08/01 01:58:21;;;;;;;;;;;;;;;24.32;46.45;95689.88;10233004;28;1898;-67
2022/08/01 02:03:22;;;;;;;;;;;;;;;24.32;46.20;95695.19;10235988;28;2063;-67
2022/08/01 02:08:25;;;;;;;;;;;;;;;24.32;46.21;95701.25;10237828;28;2027;-67
2022/08/01 02:13:25;;;;;;;;;;;;;;;24.33;46.37;95704.69;10234276;28;1940;-67
2022/08/01 02:18:26;;;;;;;;;;;;;;;24.32;46.12;95701.25;10220721;29;1945;-67
2022/08/01 02:23:32;;;;;;;;;;;;;;;24.34;46.37;95699.09;10230997;28;2040;-66
2022/08/01 02:28:33;;;;;;;;;;;;;;;24.34;46.16;95700.97;10245648;28;1965;-67
2022/08/01 02:33:36;;;;;;;;;;;;;;;24.33;46.28;95700.19;10229066;28;1980;-67
2022/08/01 02:38:37;;;;;;;;;;;;;;;24.32;46.27;95700.50;10236568;28;1918;-67
2022/08/01 02:43:39;;;;;;;;;;;;;;;24.34;46.04;95706.28;10237932;28;1930;-67
2022/08/01 02:48:40;;;;;;;;;;;;;;;24.33;46.18;95704.69;10239085;28;2008;-67
2022/08/01 02:53:40;;;;;;;;;;;;;;;24.33;46.27;95707.34;10232304;28;2001;-67
2022/08/01 02:58:41;;;;;;;;;;;;;;;24.33;46.28;95710.78;10232541;28;1909;-67
2022/08/01 03:03:41;;;;;;;;;;;;;;;24.33;46.13;95710.78;10214344;28;1906;-67
2022/08/01 03:08:41;;;;;;;;;;;;;;;24.34;46.24;95716.88;10236916;28;1963;-67
2022/08/01 03:13:42;;;;;;;;;;;;;;;24.35;46.04;95723.72;10233773;28;1981;-67
2022/08/01 03:18:45;;;;;;;;;;;;;;;24.34;46.22;95714.97;10229640;29;2263;-67
2022/08/01 03:23:46;;;;;;;;;;;;;;;24.34;46.06;95722.16;10235075;28;1943;-67
2022/08/01 03:28:46;;;;;;;;;;;;;;;24.34;46.19;95719.50;10238242;28;1988;-67
2022/08/01 03:33:46;;;;;;;;;;;;;;;24.34;46.20;95714.22;10233184;28;1974;-67
2022/08/01 03:38:47;;;;;;;;;;;;;;;24.35;46.19;95723.72;10235062;29;1936;-67
2022/08/01 03:43:52;;;;;;;;;;;;;;;24.34;46.09;95724.81;10253777;28;1898;-67
2022/08/01 03:48:52;;;;;;;;;;;;;;;24.33;46.01;95731.19;10246613;28;2063;-67
2022/08/01 03:53:53;;;;;;;;;;;;;;;24.34;45.86;95735.41;10239183;28;2159;-67
2022/08/01 03:58:53;;;;;;;;;;;;;;;24.33;46.04;95744.44;10253612;28;2122;-67
2022/08/01 04:03:53;;;;;;;;;;;;;;;24.35;46.16;95747.56;10251977;28;1946;-66
2022/08/01 04:08:57;;;;;;;;;;;;;;;24.33;45.93;95747.06;10242469;28;2244;-67
2022/08/01 04:13:57;;;;;;;;;;;;;;;24.34;45.97;95751.31;10225862;29;1908;-65
2022/08/01 04:19:03;;;;;;;;;;;;;;;24.34;45.81;95751.31;10240892;28;1973;-66
2022/08/01 04:24:05;;;;;;;;;;;;;;;24.32;46.07;95756.13;10243331;28;2068;-66
2022/08/01 04:29:05;;;;;;;;;;;;;;;24.34;45.70;95767.19;10223557;28;2200;-66
2022/08/01 04:34:05;;;;;;;;;;;;;;;24.35;45.84;95776.69;10242541;28;2506;-66
2022/08/01 04:39:06;;;;;;;;;;;;;;;24.34;45.72;95775.16;10239018;28;2002;-66
2022/08/01 04:44:06;;;;;;;;;;;;;;;24.35;45.62;95780.16;10237845;29;1875;-66
2022/08/01 04:49:08;;;;;;;;;;;;;;;24.34;45.79;95783.09;10233290;28;2012;-66
2022/08/01 04:54:08;;;;;;;;;;;;;;;24.32;45.42;95778.06;10251369;28;2396;-66
2022/08/01 05:04:28;;;;;;;;;;;;;;;24.32;45.43;95782.59;10237328;28;2000;-66
2022/08/01 05:09:28;;;;;;;;;;;;;;;24.29;45.50;95791.13;10256134;28;2147;-66
2022/08/01 05:14:31;;;;;;;;;;;;;;;24.31;45.42;95789.75;10241463;28;2010;-66
2022/08/01 05:19:32;;;;;;;;;;;;;;;24.32;45.61;95791.31;10236301;28;1932;-66
2022/08/01 05:24:33;;;;;;;;;;;;;;;24.35;45.47;95800.53;10237890;28;1996;-66
2022/08/01 05:29:34;;;;;;;;;;;;;;;24.33;45.55;95806.16;10237111;28;1988;-66
2022/08/01 05:34:34;;;;;;;;;;;;;;;24.35;45.42;95808.50;10240131;28;1927;-65
2022/08/01 05:39:34;;;;;;;;;;;;;;;24.37;45.38;95811.63;10235604;28;2707;-66
2022/08/01 05:44:41;;;;;;;;;;;;;;;24.35;45.49;95827.84;10236375;29;1992;-66
2022/08/01 05:49:41;;;;;;;;;;;;;;;24.36;45.43;95818.03;10236655;28;1982;-67
2022/08/01 05:54:41;;;;;;;;;;;;;;;24.37;45.45;95816.94;10237896;28;1961;-66
2022/08/01 05:59:41;;;;;;;;;;;;;;;24.36;45.54;95818.03;10231418;28;1929;-66
2022/08/01 06:04:42;;;;;;;;;;;;;;;24.36;45.45;95820.69;10237219;28;1968;-66
2022/08/01 06:09:43;;;;;;;;;;;;;;;24.37;45.82;95822.22;10240340;28;2043;-66
2022/08/01 06:14:43;;;;;;;;;;;;;;;24.39;45.62;95823.50;10237250;28;1949;-66
2022/08/01 06:19:43;;;;;;;;;;;;;;;24.40;45.67;95832.25;10237621;29;2006;-66
2022/08/01 06:24:44;;;;;;;;;;;;;;;24.40;45.39;95832.25;10250043;28;1961;-66
2022/08/01 06:29:44;;;;;;;;;;;;;;;24.40;45.72;95834.91;10239655;28;1984;-66
2022/08/01 06:34:49;;;;;;;;;;;;;;;24.41;45.74;95842.53;10240690;28;2070;-65
2022/08/01 06:39:49;;;;;;;;;;;;;;;24.41;45.54;95847.06;10234434;28;2390;-65
2022/08/01 06:44:50;;;;;;;;;;;;;;;24.41;45.48;95847.06;10238844;28;2047;-65
2022/08/01 06:49:50;;;;;;;;;;;;;;;24.42;45.65;95840.69;10234920;28;1976;-65
2022/08/01 06:54:50;;;;;;;;;;;;;;;24.40;45.55;95843.59;10239608;28;1920;-65
2022/08/01 06:59:51;;;;;;;;;;;;;;;24.42;45.60;95843.34;10231802;28;2036;-65
2022/08/01 07:04:52;;;;;;;;;;;;;;;24.42;45.62;95840.69;10231949;28;1987;-65
2022/08/01 07:09:52;;;;;;;;;;;;;;;24.42;45.66;95836.16;10231008;28;2008;-66
2022/08/01 07:14:53;;;;;;;;;;;;;;;24.42;45.70;95836.16;10237280;28;2008;-66
2022/08/01 07:19:54;;;;;;;;;;;;;;;24.41;45.59;95829.28;10234438;29;1937;-65
2022/08/01 07:24:54;;;;;;;;;;;;;;;24.41;45.55;95831.16;10233718;28;1891;-65
2022/08/01 07:29:55;;;;;;;;;;;;;;;24.42;45.53;95828.19;10249007;28;1982;-66
2022/08/01 07:34:56;;;;;;;;;;;;;;;24.42;45.23;95832.75;10247740;28;1995;-66
2022/08/01 07:39:56;;;;;;;;;;;;;;;24.42;45.48;95828.19;10235040;28;1993;-66
2022/08/01 07:44:56;;;;;;;;;;;;;;;24.43;45.30;95829.00;10231186;28;2345;-66
2022/08/01 07:50:00;;;;;;;;;;;;;;;24.43;45.50;95829.78;10237379;28;1965;-66
2022/08/01 07:55:01;;;;;;;;;;;;;;;24.44;45.34;95825.28;10230210;28;1987;-66
2022/08/01 08:00:03;;;;;;;;;;;;;;;24.45;45.82;95832.94;10232709;28;2174;-66
2022/08/01 08:05:04;;;;;;;;;;;;;;;24.46;45.55;95831.06;10238347;28;1834;-65
2022/08/01 08:10:05;;;;;;;;;;;;;;;24.45;45.49;95832.94;10239215;28;1887;-65
2022/08/01 08:15:06;;;;;;;;;;;;;;;24.46;45.63;95823.88;10237224;28;1945;-66
2022/08/01 08:20:06;;;;;;;;;;;;;;;24.46;45.77;95828.41;10236401;28;2213;-66
2022/08/01 08:25:07;;;;;;;;;;;;;;;24.46;45.74;95823.13;10235340;28;1872;-66
2022/08/01 08:30:08;;;;;;;;;;;;;;;24.46;45.68;95825.75;10237441;28;1967;-66
2022/08/01 08:35:10;;;;;;;;;;;;;;;24.46;45.57;95823.88;10242584;28;1850;-66
2022/08/01 08:40:10;;;;;;;;;;;;;;;24.47;45.49;95822.81;10244112;28;1906;-66
2022/08/01 08:45:11;;;;;;;;;;;;;;;24.47;45.61;95806.13;10236756;28;1821;-66
2022/08/01 08:50:12;;;;;;;;;;;;;;;24.48;45.66;95820.97;10242968;28;1968;-66
2022/08/01 08:55:14;;;;;;;;;;;;;;;24.48;45.69;95821.75;10239695;28;2022;-66
2022/08/01 09:00:15;;;;;;;;;;;;;;;24.50;45.72;95830.19;10232869;29;1871;-65
2022/08/01 09:05:17;;;;;;;;;;;;;;;24.49;45.53;95812.69;10236740;28;1867;-66
2022/08/01 09:10:17;;;;;;;;;;;;;;;24.50;45.63;95808.19;10237131;28;1975;-66
2022/08/01 09:15:18;;;;;;;;;;;;;;;24.50;45.62;95814.28;10237412;28;1943;-66
2022/08/01 09:20:22;;;;;;;;;;;;;;;24.51;45.91;95813.19;10236167;28;1849;-66
2022/08/01 09:25:22;;;;;;;;;;;;;;;24.52;45.68;95816.63;10242447;28;1874;-66
2022/08/01 09:30:23;;;;;;;;;;;;;;;24.52;45.73;95814.78;10238484;28;1972;-66
2022/08/01 09:35:24;;;;;;;;;;;;;;;24.53;45.66;95812.88;10234123;28;1953;-66
2022/08/01 09:40:25;;;;;;;;;;;;;;;24.54;45.74;95817.13;10239001;28;1908;-66
2022/08/01 09:45:32;;;;;;;;;;;;;;;24.55;45.92;95821.31;10241862;28;1883;-67
2022/08/01 09:50:40;;;;;;;;;;;;;;;24.54;45.56;95809.16;10236240;29;1919;-66
2022/08/01 09:55:40;;;;;;;;;;;;;;;24.56;45.79;95807.00;10235217;28;1853;-67
2022/08/01 10:00:40;;;;;;;;;;;;;;;24.56;45.80;95797.19;10239945;28;1831;-65
2022/08/01 10:05:43;;;;;;;;;;;;;;;24.58;45.77;95802.97;10237658;28;1934;-66
2022/08/01 10:10:43;;;;;;;;;;;;;;;24.59;45.85;95795.78;10238530;28;1967;-66
2022/08/01 10:15:43;;;;;;;;;;;;;;;24.58;45.77;95797.69;10225506;28;1863;-66
2022/08/01 10:20:44;;;;;;;;;;;;;;;24.59;45.95;95790.50;10232392;28;1876;-67
2022/08/01 10:25:44;;;;;;;;;;;;;;;24.59;45.66;95793.13;10236507;28;2034;-69
2022/08/01 10:30:45;;;;;;;;;;;;;;;24.61;45.84;95783.03;10234744;28;1977;-67
2022/08/01 10:35:45;;;;;;;;;;;;;;;24.62;45.75;95784.59;10235962;28;1840;-67
2022/08/01 10:40:45;;;;;;;;;;;;;;;24.65;45.93;95781.34;10257022;28;1769;-67
2022/08/01 10:45:50;;;;;;;;;;;;;;;24.65;46.17;95779.47;10234372;28;1868;-67
2022/08/01 10:50:51;;;;;;;;;;;;;;;24.67;45.97;95779.19;10231940;28;1899;-67
2022/08/01 10:56:01;;;;;;;;;;;;;;;24.67;45.94;95776.53;10238942;28;1827;-66
2022/08/01 11:01:20;;;;;;;;;;;;;;;24.68;46.23;95770.16;10233880;28;1782;-67
2022/08/01 11:06:25;;;;;;;;;;;;;;;24.69;46.08;95766.44;10238650;28;1742;-67
2022/08/01 11:11:25;;;;;;;;;;;;;;;24.69;46.03;95759.25;10242965;28;1976;-66
2022/08/01 11:16:29;;;;;;;;;;;;;;;24.69;45.95;95750.53;10235442;28;1800;-66
2022/08/01 11:21:48;;;;;;;;;;;;;;;24.70;46.05;95749.44;10233222;29;1866;-67
2022/08/01 11:27:11;;;;;;;;;;;;;;;24.69;46.00;95751.31;10238771;28;2013;-67
2022/08/01 11:32:24;;;;;;;;;;;;;;;24.71;45.83;95748.38;10238946;28;2044;-68
2022/08/01 11:37:25;;;;;;;;;;;;;;;24.71;45.95;95741.19;10250899;28;1911;-65
2022/08/01 11:42:26;;;;;;;;;;;;;;;24.71;46.04;95740.41;10235293;28;1856;-66
2022/08/01 11:47:47;;;;;;;;;;;;;;;24.73;45.93;95735.59;10230008;29;1843;-66
2022/08/01 11:52:47;;;;;;;;;;;;;;;24.73;46.06;95744.34;10232390;28;1977;-66
2022/08/01 11:57:48;;;;;;;;;;;;;;;24.73;45.88;95735.59;10246341;28;1945;-66
2022/08/01 12:02:55;;;;;;;;;;;;;;;24.75;45.94;95736.13;10234908;28;1839;-66
2022/08/01 12:07:56;;;;;;;;;;;;;;;24.75;45.94;95730.81;10262411;28;1806;-66
2022/08/01 12:13:00;;;;;;;;;;;;;;;24.75;45.92;95731.56;10244780;28;1914;-66
2022/08/01 12:18:02;;;;;;;;;;;;;;;24.76;46.17;95721.75;10243886;28;1984;-66
2022/08/01 12:23:04;;;;;;;;;;;;;;;24.76;46.05;95727.06;10242090;28;1812;-66
2022/08/01 12:28:06;;;;;;;;;;;;;;;24.77;45.88;95712.75;10244359;28;1909;-66
2022/08/01 12:33:07;;;;;;;;;;;;;;;24.78;45.97;95704.47;10240584;28;1957;-66
2022/08/01 12:38:15;;;;;;;;;;;;;;;24.78;45.78;95709.78;10245300;28;1846;-66
2022/08/01 12:43:19;;;;;;;;;;;;;;;24.78;46.17;95698.38;10242176;28;1898;-66
2022/08/01 12:48:19;;;;;;;;;;;;;;;24.81;45.97;95695.16;10220692;29;1821;-66
2022/08/01 12:53:20;;;;;;;;;;;;;;;24.81;45.99;95692.50;10227917;29;1911;-66
2022/08/01 12:58:21;;;;;;;;;;;;;;;24.85;46.19;95698.75;10238587;28;1968;-66
2022/08/01 13:03:21;;;;;;;;;;;;;;;24.85;46.12;95688.16;10241949;28;1838;-66
2022/08/01 13:08:21;;;;;;;;;;;;;;;24.84;46.23;95694.53;10239490;28;1832;-66
2022/08/01 13:13:22;;;;;;;;;;;;;;;24.83;46.07;95692.97;10240729;28;1961;-66
2022/08/01 13:18:25;;;;;;;;;;;;;;;24.84;46.49;95691.88;10238113;28;2060;-66
2022/08/01 13:23:25;;;;;;;;;;;;;;;24.84;46.35;95713.09;10254625;28;1968;-66
2022/08/01 13:28:26;;;;;;;;;;;;;;;24.82;46.19;95713.41;10241293;28;1847;-66
2022/08/01 13:33:28;;;;;;;;;;;;;;;24.82;46.17;95709.94;10224797;28;1997;-66
2022/08/01 13:39:40;;;;;;;;;;;;;;;24.82;46.15;95705.44;10237391;29;2159;-66
2022/08/01 13:43:49;;;;;;;;;;;;;;;24.83;46.20;95701.69;10252441;28;1880;-65
2022/08/01 13:48:52;;;;;;;;;;;;;;;24.85;46.26;95693.44;10237732;28;2022;-66
2022/08/01 13:53:53;;;;;;;;;;;;;;;24.85;46.34;95698.75;10235835;28;1940;-68
2022/08/01 13:58:54;;;;;;;;;;;;;;;24.85;46.61;95706.72;10235814;28;1888;-67
2022/08/01 14:03:54;;;;;;;;;;;;;;;24.86;46.47;95702.97;10233948;29;1921;-67
2022/08/01 14:08:55;;;;;;;;;;;;;;;24.85;46.53;95699.50;10237653;28;1908;-67
2022/08/01 14:13:55;;;;;;;;;;;;;;;24.87;46.44;95709.84;10238199;29;1975;-67
2022/08/01 14:19:01;;;;;;;;;;;;;;;24.86;46.50;95726.81;10241454;28;1837;-67
2022/08/01 14:24:01;;;;;;;;;;;;;;;24.85;46.55;95720.72;10235162;28;2012;-67
2022/08/01 14:29:02;;;;;;;;;;;;;;;24.86;46.51;95724.16;10234303;28;1864;-67
2022/08/01 14:34:02;;;;;;;;;;;;;;;24.86;46.38;95722.31;10236063;28;1914;-67
2022/08/01 14:39:03;;;;;;;;;;;;;;;24.87;46.44;95725.75;10229899;28;1992;-68
2022/08/01 14:44:05;;;;;;;;;;;;;;;24.87;46.54;95728.41;10235670;28;1889;-67
2022/08/01 14:49:06;;;;;;;;;;;;;;;24.86;46.68;95722.31;10236659;28;1916;-67
2022/08/01 14:54:06;;;;;;;;;;;;;;;24.87;46.58;95725.75;10229705;28;1968;-67
2022/08/01 14:59:06;;;;;;;;;;;;;;;24.87;46.47;95723.09;10228044;28;1899;-67
2022/08/01 15:04:07;;;;;;;;;;;;;;;24.87;46.49;95726.50;10253738;28;1829;-67
2022/08/01 15:09:07;;;;;;;;;;;;;;;24.88;46.67;95735.25;10233739;28;1835;-67
2022/08/01 15:19:26;;;;;;;;;;;;;;;24.89;46.45;95734.19;10247691;28;1868;-67
2022/08/01 15:24:27;;;;;;;;;;;;;;;24.89;46.35;95737.59;10236001;28;1982;-67
2022/08/01 15:29:27;;;;;;;;;;;;;;;24.88;46.50;95740.56;10229709;28;2084;-67
2022/08/01 15:34:30;;;;;;;;;;;;;;;24.89;46.53;95736.84;10233823;28;1918;-67
2022/08/01 15:39:32;;;;;;;;;;;;;;;24.89;46.56;95737.59;10242649;28;1839;-67
2022/08/01 15:44:33;;;;;;;;;;;;;;;24.89;46.73;95739.50;10241746;28;2056;-66
2022/08/01 15:49:35;;;;;;;;;;;;;;;24.90;46.65;95741.03;10244944;28;2149;-67
2022/08/01 15:54:36;;;;;;;;;;;;;;;24.90;46.65;95751.66;10242144;28;2005;-67
2022/08/01 15:59:36;;;;;;;;;;;;;;;24.90;46.53;95743.69;10243373;28;1828;-68
2022/08/01 16:04:37;;;;;;;;;;;;;;;24.90;46.61;95756.94;10237190;28;1895;-67
2022/08/01 16:09:37;;;;;;;;;;;;;;;24.89;46.45;95753.50;10240676;28;1814;-68
2022/08/01 16:14:38;;;;;;;;;;;;;;;24.90;46.72;95755.09;10239140;28;1918;-68
2022/08/01 16:19:39;;;;;;;;;;;;;;;24.90;46.52;95771.00;10233492;28;2604;-67
2022/08/01 16:24:39;;;;;;;;;;;;;;;24.89;46.68;95748.22;10253903;28;1778;-67
2022/08/01 16:29:40;;;;;;;;;;;;;;;24.90;46.44;95760.41;10237766;28;1843;-67
2022/08/01 16:34:40;;;;;;;;;;;;;;;24.89;46.44;95747.44;10239565;28;1981;-68
2022/08/01 16:39:40;;;;;;;;;;;;;;;24.89;46.33;95737.59;10240398;28;1857;-67
2022/08/01 16:44:43;;;;;;;;;;;;;;;24.90;46.64;95728.56;10236004;28;1804;-68
2022/08/01 16:49:44;;;;;;;;;;;;;;;24.89;46.45;95716.38;10239236;28;1811;-68
2022/08/01 16:54:44;;;;;;;;;;;;;;;24.90;46.61;95717.97;10237914;28;1982;-68
2022/08/01 16:59:45;;;;;;;;;;;;;;;24.91;46.57;95697.56;10243101;28;1940;-68
2022/08/01 17:04:45;;;;;;;;;;;;;;;24.90;46.68;95696.75;10240527;28;1863;-68
2022/08/01 17:09:46;;;;;;;;;;;;;;;24.91;46.51;95695.69;10240265;28;1939;-68
2022/08/01 17:14:50;;;;;;;;;;;;;;;24.91;46.63;95702.84;10241418;28;1978;-68
2022/08/01 17:19:50;;;;;;;;;;;;;;;24.92;46.68;95696.44;10238874;28;1907;-68
2022/08/01 17:24:51;;;;;;;;;;;;;;;24.92;46.54;95705.19;10241984;28;1805;-67
2022/08/01 17:29:51;;;;;;;;;;;;;;;24.92;46.71;95704.41;10243264;28;2043;-68
2022/08/01 17:34:52;;;;;;;;;;;;;;;24.93;46.60;95711.28;10234651;28;2296;-67
2022/08/01 17:39:52;;;;;;;;;;;;;;;24.93;46.60;95711.28;10234840;28;2027;-66
2022/08/01 17:44:52;;;;;;;;;;;;;;;24.93;46.72;95713.94;10236944;28;2044;-68
2022/08/01 17:49:52;;;;;;;;;;;;;;;24.93;46.99;95717.38;10240192;28;1872;-67
2022/08/01 17:54:53;;;;;;;;;;;;;;;24.93;46.72;95729.84;10239563;28;2081;-67
2022/08/01 17:59:53;;;;;;;;;;;;;;;24.92;46.74;95730.91;10234122;28;1809;-67
2022/08/01 18:04:54;;;;;;;;;;;;;;;24.93;46.53;95737.81;10236608;28;1954;-67
2022/08/01 18:09:56;;;;;;;;;;;;;;;24.92;46.64;95752.13;10233724;28;1950;-67
2022/08/01 18:15:02;;;;;;;;;;;;;;;24.94;46.51;95755.25;10247145;28;1840;-67
2022/08/01 18:20:02;;;;;;;;;;;;;;;24.92;46.72;95744.97;10243377;28;1950;-67
2022/08/01 18:25:04;;;;;;;;;;;;;;;24.93;46.63;95743.91;10235175;28;2051;-66
2022/08/01 18:30:04;;;;;;;;;;;;;;;24.92;46.91;95754.78;10238695;28;1964;-66
2022/08/01 18:35:05;;;;;;;;;;;;;;;24.93;46.77;95757.16;10234168;28;1945;-67
2022/08/01 18:40:06;;;;;;;;;;;;;;;24.93;46.57;95749.19;10251757;28;1890;-67
2022/08/01 18:45:06;;;;;;;;;;;;;;;24.92;46.58;95739.66;10239979;28;2020;-67
2022/08/01 18:50:07;;;;;;;;;;;;;;;24.93;46.84;95743.09;10239801;28;1907;-67
2022/08/01 18:55:08;;;;;;;;;;;;;;;24.94;46.53;95757.91;10240745;28;1964;-67
2022/08/01 19:00:08;;;;;;;;;;;;;;;24.93;46.76;95775.72;10238498;28;1891;-67
2022/08/01 19:05:08;;;;;;;;;;;;;;;24.93;46.59;95794.28;10233230;28;2014;-67
2022/08/01 19:10:11;;;;;;;;;;;;;;;24.92;46.38;95791.91;10232165;28;2029;-67
2022/08/01 19:15:13;;;;;;;;;;;;;;;24.92;46.34;95811.25;10233052;28;1938;-67
2022/08/01 19:20:13;;;;;;;;;;;;;;;24.93;46.51;95817.34;10248512;28;1864;-67
2022/08/01 19:25:14;;;;;;;;;;;;;;;24.92;46.67;95800.66;10239410;28;1815;-66
2022/08/01 19:30:14;;;;;;;;;;;;;;;24.92;46.38;95802.50;10236164;28;1911;-67
2022/08/01 19:35:15;;;;;;;;;;;;;;;24.92;46.31;95805.16;10253320;28;2113;-66
2022/08/01 19:40:16;;;;;;;;;;;;;;;24.91;46.54;95807.06;10236474;28;1977;-66
2022/08/01 19:45:16;;;;;;;;;;;;;;;24.93;46.12;95812.06;10236991;28;1827;-66
2022/08/01 19:50:17;;;;;;;;;;;;;;;24.93;46.33;95822.66;10236528;28;1918;-67
2022/08/01 19:55:17;;;;;;;;;;;;;;;24.93;46.32;95838.56;10229000;28;1914;-67
2022/08/01 20:00:17;;;;;;;;;;;;;;;24.94;46.41;95850.72;10250310;28;1908;-67
2022/08/01 20:05:18;;;;;;;;;;;;;;;24.95;46.11;95881.47;10230364;28;2019;-67
2022/08/01 20:10:21;;;;;;;;;;;;;;;24.93;46.37;95873.84;10249166;28;1914;-66
2022/08/01 20:15:21;;;;;;;;;;;;;;;24.93;46.35;95843.88;10232978;28;1844;-66
2022/08/01 20:20:22;;;;;;;;;;;;;;;24.94;46.30;95834.81;10232070;28;1973;-66
2022/08/01 20:25:25;;;;;;;;;;;;;;;24.96;46.44;95830.00;10237658;28;1947;-67
2022/08/01 20:30:27;;;;;;;;;;;;;;;24.95;46.37;95833.75;10238737;28;2014;-66
2022/08/01 20:35:28;;;;;;;;;;;;;;;24.95;46.21;95825.78;10243339;28;2533;-66
2022/08/01 20:40:29;;;;;;;;;;;;;;;24.95;46.16;95828.44;10245358;28;1843;-66
2022/08/01 20:45:30;;;;;;;;;;;;;;;24.95;46.34;95815.19;10236500;28;1844;-66
2022/08/01 20:55:54;;;;;;;;;;;;;;;24.94;46.23;95829.50;10240455;28;2076;-66
2022/08/01 21:00:54;;;;;;;;;;;;;;;24.95;46.24;95841.72;10240964;28;2061;-67
2022/08/01 21:05:56;;;;;;;;;;;;;;;24.96;46.10;95851.22;10243736;28;1899;-67
2022/08/01 21:10:56;;;;;;;;;;;;;;;24.96;46.28;95859.16;10225627;28;1977;-66
2022/08/01 21:15:58;;;;;;;;;;;;;;;24.96;46.09;95859.16;10235229;28;1954;-67
2022/08/01 21:20:59;;;;;;;;;;;;;;;24.95;46.17;95862.91;10232878;28;2092;-66
2022/08/01 21:25:59;;;;;;;;;;;;;;;24.95;46.33;95879.63;10252992;28;1829;-66
2022/08/01 21:31:00;;;;;;;;;;;;;;;24.96;46.12;95913.00;10240233;28;2009;-67
2022/08/01 21:36:00;;;;;;;;;;;;;;;24.96;46.10;95922.81;10234271;28;1986;-67
2022/08/01 21:41:01;;;;;;;;;;;;;;;24.95;45.89;95945.13;10237820;28;2080;-67
2022/08/01 21:46:01;;;;;;;;;;;;;;;24.96;45.99;95952.00;10252827;28;2057;-66
2022/08/01 21:51:12;;;;;;;;;;;;;;;24.95;45.97;95945.91;10238425;28;2029;-67
2022/08/01 21:56:32;;;;;;;;;;;;;;;24.95;45.87;95943.28;10234255;28;1858;-67
2022/08/01 22:01:44;;;;;;;;;;;;;;;24.95;45.93;95939.81;10240807;28;1860;-66
2022/08/01 22:06:45;;;;;;;;;;;;;;;24.95;45.87;95926.56;10234599;28;1997;-67
2022/08/01 22:11:45;;;;;;;;;;;;;;;24.96;46.00;95936.06;10235510;28;1914;-66
2022/08/01 22:16:46;;;;;;;;;;;;;;;24.96;45.86;95933.44;10237314;28;2113;-67
2022/08/01 22:21:47;;;;;;;;;;;;;;;24.95;45.84;95929.22;10240119;28;1812;-67
2022/08/01 22:26:47;;;;;;;;;;;;;;;24.96;45.92;95925.47;10253628;28;2155;-67
2022/08/01 22:31:48;;;;;;;;;;;;;;;24.97;45.71;95913.78;10251293;28;1915;-67
2022/08/01 22:36:48;;;;;;;;;;;;;;;24.95;46.01;95911.44;10234416;28;1909;-66
2022/08/01 22:41:50;;;;;;;;;;;;;;;24.96;45.86;95913.00;10252706;28;1837;-66
2022/08/01 22:46:57;;;;;;;;;;;;;;;24.97;45.86;95900.53;10232913;28;1803;-67
2022/08/01 22:52:06;;;;;;;;;;;;;;;24.97;45.74;95900.53;10252116;28;1914;-69
2022/08/01 22:57:10;;;;;;;;;;;;;;;24.97;45.74;95897.88;10237127;28;1830;-67
2022/08/01 23:02:12;;;;;;;;;;;;;;;24.96;45.67;95891.00;10248844;28;1782;-67
2022/08/01 23:07:19;;;;;;;;;;;;;;;24.96;45.67;95886.47;10253624;28;1916;-67
2022/08/01 23:12:24;;;;;;;;;;;;;;;24.97;45.58;95876.66;10238047;28;1914;-67
2022/08/01 23:17:25;;;;;;;;;;;;;;;24.96;45.66;95881.19;10237421;28;1828;-67
2022/08/01 23:22:30;;;;;;;;;;;;;;;24.96;45.46;95875.88;10250828;28;1758;-67
2022/08/01 23:27:30;;;;;;;;;;;;;;;24.96;45.74;95875.88;10232648;28;1925;-67
2022/08/01 23:32:31;;;;;;;;;;;;;;;24.97;45.58;95876.66;10231598;28;1907;-67
2022/08/01 23:37:31;;;;;;;;;;;;;;;24.97;45.47;95887.28;10230772;28;1798;-67
2022/08/01 23:42:31;;;;;;;;;;;;;;;24.96;45.47;95883.03;10230657;28;1861;-67
2022/08/01 23:47:32;;;;;;;;;;;;;;;24.97;45.66;95895.22;10235141;28;1846;-67
2022/08/01 23:52:33;;;;;;;;;;;;;;;24.97;45.68;95881.97;10237678;28;1948;-68
2022/08/01 23:57:33;;;;;;;;;;;;;;;24.97;45.64;95887.28;10233971;28;1848;-67
